createdAt,value
2022-07-25T00:01:36.330Z,100217.49
2022-07-25T00:06:40.127Z,100222.98
2022-07-25T00:11:43.783Z,100222.87
2022-07-25T00:16:47.196Z,100223.65
2022-07-25T00:21:50.818Z,100223.02
2022-07-25T00:26:54.129Z,100218.76
2022-07-25T00:31:57.643Z,100215.42
2022-07-25T00:37:01.362Z,100208.27
2022-07-25T00:42:05.083Z,100209.83
2022-07-25T00:47:08.495Z,100202.95
2022-07-25T00:52:11.909Z,100196.09
2022-07-25T00:57:15.219Z,100199.10
2022-07-25T01:02:18.668Z,100188.17
2022-07-25T01:07:23.076Z,100191.06
2022-07-25T01:12:26.482Z,100188.68
2022-07-25T01:17:29.691Z,100188.43
2022-07-25T01:22:33.005Z,100185.44
2022-07-25T01:27:36.312Z,100184.80
2022-07-25T01:32:39.930Z,100177.60
2022-07-25T01:37:45.939Z,100174.27
2022-07-25T01:42:49.625Z,100181.96
2022-07-25T01:47:53.141Z,100185.52
2022-07-25T01:52:56.758Z,100180.12
2022-07-25T01:58:00.073Z,100174.46
2022-07-25T02:03:22.426Z,100174.05
2022-07-25T02:08:26.147Z,100172.61
2022-07-25T02:13:29.457Z,100175.23
2022-07-25T02:18:32.869Z,100175.98
2022-07-25T02:23:36.693Z,100170.79
2022-07-25T02:28:41.335Z,100180.07
2022-07-25T02:33:44.647Z,100181.69
2022-07-25T02:38:47.956Z,100178.27
2022-07-25T02:43:51.472Z,100182.71
2022-07-25T02:48:54.830Z,100186.50
2022-07-25T02:54:09.326Z,100185.52
2022-07-25T02:59:12.770Z,100183.58
2022-07-25T03:04:16.367Z,100179.91
2022-07-25T03:09:20.726Z,100177.30
2022-07-25T03:14:23.989Z,100181.95
2022-07-25T03:19:27.345Z,100181.91
2022-07-25T03:24:30.970Z,100182.95
2022-07-25T03:29:34.785Z,100180.85
2022-07-25T03:34:38.200Z,100176.85
2022-07-25T03:39:41.612Z,100183.19
2022-07-25T03:44:45.030Z,100184.30
2022-07-25T03:49:48.337Z,100182.44
2022-07-25T03:54:51.647Z,100174.77
2022-07-25T03:59:54.958Z,100175.52
2022-07-25T04:04:58.577Z,100183.34
2022-07-25T04:10:02.299Z,100178.16
2022-07-25T04:15:06.221Z,100174.61
2022-07-25T04:20:10.367Z,100175.34
2022-07-25T04:25:13.867Z,100175.73
2022-07-25T04:30:24.679Z,100176.69
2022-07-25T04:35:28.272Z,100168.92
2022-07-25T04:40:31.887Z,100161.05
2022-07-25T04:45:35.938Z,100162.41
2022-07-25T04:50:39.433Z,100156.34
2022-07-25T04:55:42.742Z,100147.50
2022-07-25T05:00:46.350Z,100145.30
2022-07-25T05:05:49.773Z,100136.73
2022-07-25T05:10:53.987Z,100138.45
2022-07-25T05:15:57.775Z,100135.84
2022-07-25T05:21:01.446Z,100135.69
2022-07-25T05:26:04.962Z,100140.70
2022-07-25T05:31:08.322Z,100140.55
2022-07-25T05:36:11.687Z,100138.23
2022-07-25T05:41:16.225Z,100139.21
2022-07-25T05:46:19.562Z,100141.44
2022-07-25T05:51:26.735Z,100137.42
2022-07-25T05:56:30.971Z,100133.20
2022-07-25T06:01:34.760Z,100129.49
2022-07-25T06:06:38.312Z,100134.52
2022-07-25T06:11:54.451Z,100132.19
2022-07-25T06:17:03.470Z,100135.18
2022-07-25T06:22:08.417Z,100136.16
2022-07-25T06:27:13.376Z,100135.73
2022-07-25T06:32:19.644Z,100130.13
2022-07-25T06:37:23.161Z,100122.59
2022-07-25T06:42:26.370Z,100124.95
2022-07-25T06:47:34.129Z,100123.97
2022-07-25T06:52:40.011Z,100122.54
2022-07-25T06:57:43.878Z,100119.04
2022-07-25T07:02:51.545Z,100114.48
2022-07-25T07:07:55.621Z,100112.05
2022-07-25T07:13:09.377Z,100116.92
2022-07-25T07:18:13.303Z,100114.23
2022-07-25T07:23:18.051Z,100112.41
2022-07-25T07:28:22.074Z,100109.83
2022-07-25T07:33:25.385Z,100105.56
2022-07-25T07:38:28.591Z,100112.58
2022-07-25T07:43:32.263Z,100111.88
2022-07-25T07:48:35.671Z,100105.91
2022-07-25T07:53:57.575Z,100103.06
2022-07-25T07:59:00.882Z,100101.69
2022-07-25T08:04:04.401Z,100096.25
2022-07-25T08:09:07.954Z,100100.66
2022-07-25T08:14:12.047Z,100092.27
2022-07-25T08:19:15.664Z,100092.83
2022-07-25T08:24:19.075Z,100095.46
2022-07-25T08:29:27.810Z,100092.88
2022-07-25T08:34:32.762Z,100098.24
2022-07-25T08:39:36.233Z,100099.55
2022-07-25T08:44:44.504Z,100101.45
2022-07-25T08:49:48.838Z,100095.86
2022-07-25T08:54:52.687Z,100101.86
2022-07-25T09:00:00.205Z,100096.25
2022-07-25T09:05:03.798Z,100097.30
2022-07-25T09:10:13.860Z,100091.12
2022-07-25T09:15:28.023Z,100082.39
2022-07-25T09:20:45.874Z,100081.17
2022-07-25T09:25:49.184Z,100078.84
2022-07-25T09:30:57.803Z,100076.48
2022-07-25T09:36:11.166Z,100077.46
2022-07-25T09:41:14.788Z,100070.54
2022-07-25T09:46:18.157Z,100069.45
2022-07-25T09:51:23.984Z,100062.13
2022-07-25T09:56:27.280Z,100058.00
2022-07-25T10:02:02.062Z,100056.68
2022-07-25T10:07:10.754Z,100047.28
2022-07-25T10:12:21.244Z,100048.11
2022-07-25T10:17:24.421Z,100042.14
2022-07-25T10:22:57.550Z,100042.00
2022-07-25T10:28:10.147Z,100036.54
2022-07-25T10:33:15.936Z,100028.27
2022-07-25T10:38:25.289Z,100026.58
2022-07-25T10:43:29.544Z,100024.29
2022-07-25T10:48:33.531Z,100018.40
2022-07-25T10:53:44.254Z,100013.38
2022-07-25T10:58:54.529Z,100005.59
2022-07-25T11:04:01.835Z,99999.38
2022-07-25T11:09:20.655Z,99993.43
2022-07-25T11:14:33.851Z,99984.83
2022-07-25T11:19:37.673Z,99986.81
2022-07-25T11:24:45.802Z,99988.88
2022-07-25T11:29:49.214Z,99984.73
2022-07-25T11:34:54.981Z,99970.54
2022-07-25T11:39:58.185Z,99967.44
2022-07-25T11:45:01.191Z,99960.23
2022-07-25T11:50:05.453Z,99956.14
2022-07-25T11:55:11.219Z,99951.70
2022-07-25T12:00:22.329Z,99942.29
2022-07-25T12:05:32.597Z,99940.20
2022-07-25T12:10:37.098Z,99933.02
2022-07-25T12:15:41.434Z,99922.08
2022-07-25T12:20:44.949Z,99908.89
2022-07-25T12:25:48.362Z,99900.18
2022-07-25T12:30:56.291Z,99895.30
2022-07-25T12:36:04.028Z,99894.60
2022-07-25T12:41:12.443Z,99887.63
2022-07-25T12:46:18.006Z,99877.67
2022-07-25T12:51:21.513Z,99874.95
2022-07-25T12:56:24.818Z,99873.34
2022-07-25T13:01:28.081Z,99870.06
2022-07-25T13:06:34.446Z,99858.79
2022-07-25T13:11:42.735Z,99848.64
2022-07-25T13:16:47.121Z,99848.23
2022-07-25T13:21:50.383Z,99846.69
2022-07-25T13:26:53.592Z,99831.52
2022-07-25T13:31:56.850Z,99826.42
2022-07-25T13:37:00.211Z,99817.23
2022-07-25T13:42:03.524Z,99808.64
2022-07-25T13:47:06.834Z,99806.00
2022-07-25T13:52:10.145Z,99805.99
2022-07-25T13:57:13.353Z,99793.64
2022-07-25T14:02:16.663Z,99795.06
2022-07-25T14:07:20.283Z,99796.88
2022-07-25T14:12:23.494Z,99795.30
2022-07-25T14:17:30.100Z,99789.95
2022-07-25T14:22:33.699Z,99793.28
2022-07-25T14:27:38.408Z,99797.39
2022-07-25T14:32:41.549Z,99794.04
2022-07-25T14:37:44.756Z,99788.34
2022-07-25T14:42:48.782Z,99778.34
2022-07-25T14:47:52.197Z,99768.58
2022-07-25T14:52:55.304Z,99756.42
2022-07-25T14:58:03.323Z,99749.54
2022-07-25T15:03:07.054Z,99739.52
2022-07-25T15:08:12.814Z,99733.64
2022-07-25T15:13:32.418Z,99732.77
2022-07-25T15:18:52.168Z,99729.02
2022-07-25T15:24:00.326Z,99720.14
2022-07-25T15:29:08.294Z,99710.38
2022-07-25T15:34:12.007Z,99702.29
2022-07-25T15:39:15.177Z,99698.59
2022-07-25T15:44:18.382Z,99692.02
2022-07-25T15:49:22.858Z,99679.43
2022-07-25T15:54:29.521Z,99671.09
2022-07-25T15:59:33.128Z,99664.73
2022-07-25T16:04:36.339Z,99657.38
2022-07-25T16:09:39.649Z,99647.44
2022-07-25T16:14:42.961Z,99635.66
2022-07-25T16:19:46.922Z,99629.89
2022-07-25T16:24:50.768Z,99622.78
2022-07-25T16:29:54.427Z,99624.79
2022-07-25T16:34:58.455Z,99620.41
2022-07-25T16:40:03.515Z,99614.67
2022-07-25T16:45:08.720Z,99611.07
2022-07-25T16:50:12.281Z,99606.65
2022-07-25T16:55:15.691Z,99603.69
2022-07-25T17:00:19.620Z,99606.05
2022-07-25T17:05:23.111Z,99598.79
2022-07-25T17:10:26.957Z,99592.44
2022-07-25T17:15:30.532Z,99585.73
2022-07-25T17:20:34.416Z,99580.96
2022-07-25T17:25:39.716Z,99572.16
2022-07-25T17:30:43.373Z,99567.80
2022-07-25T17:35:46.796Z,99562.58
2022-07-25T17:40:50.097Z,99560.30
2022-07-25T17:45:57.691Z,99551.02
2022-07-25T17:51:01.028Z,99546.83
2022-07-25T17:56:04.953Z,99546.90
2022-07-25T18:01:10.429Z,99533.26
2022-07-25T18:06:15.048Z,99525.63
2022-07-25T18:11:18.567Z,99520.35
2022-07-25T18:16:23.543Z,99515.18
2022-07-25T18:21:28.365Z,99506.48
2022-07-25T18:26:31.674Z,99505.99
2022-07-25T18:31:36.385Z,99505.08
2022-07-25T18:36:41.941Z,99508.55
2022-07-25T18:41:45.291Z,99501.69
2022-07-25T18:46:49.242Z,99497.02
2022-07-25T18:51:52.631Z,99490.03
2022-07-25T18:56:56.043Z,99492.20
2022-07-25T19:01:59.367Z,99501.11
2022-07-25T19:07:02.973Z,99497.44
2022-07-25T19:12:06.798Z,99498.68
2022-07-25T19:17:10.111Z,99502.05
2022-07-25T19:22:13.421Z,99504.44
2022-07-25T19:27:16.889Z,99502.93
2022-07-25T19:32:20.244Z,99507.08
2022-07-25T19:37:23.555Z,99505.91
2022-07-25T19:42:26.967Z,99503.94
2022-07-25T19:47:30.279Z,99506.59
2022-07-25T19:52:33.646Z,99505.08
2022-07-25T19:57:37.106Z,99497.92
2022-07-25T20:02:41.707Z,99501.34
2022-07-25T20:07:46.799Z,99501.10
2022-07-25T20:12:50.008Z,99503.46
2022-07-25T20:17:53.420Z,99497.36
2022-07-25T20:22:56.684Z,99494.89
2022-07-25T20:28:00.046Z,99497.35
2022-07-25T20:33:05.500Z,99493.38
2022-07-25T20:38:12.816Z,99489.08
2022-07-25T20:43:17.457Z,99490.86
2022-07-25T20:48:20.866Z,99489.27
2022-07-25T20:53:24.379Z,99485.88
2022-07-25T20:58:27.696Z,99482.89
2022-07-25T21:03:31.523Z,99486.20
2022-07-25T21:08:35.134Z,99490.39
2022-07-25T21:13:38.343Z,99488.70
2022-07-25T21:18:41.959Z,99487.10
2022-07-25T21:23:45.710Z,99484.69
2022-07-25T21:28:50.023Z,99481.95
2022-07-25T21:33:53.426Z,99474.66
2022-07-25T21:38:57.047Z,99469.86
2022-07-25T21:44:00.472Z,99467.48
2022-07-25T21:49:25.463Z,99456.77
2022-07-25T21:54:46.402Z,99448.86
2022-07-25T21:59:49.920Z,99439.11
2022-07-25T22:04:53.853Z,99430.73
2022-07-25T22:09:57.256Z,99419.93
2022-07-25T22:15:00.772Z,99410.95
2022-07-25T22:20:06.354Z,99407.21
2022-07-25T22:25:10.114Z,99396.89
2022-07-25T22:30:18.754Z,99384.31
2022-07-25T22:35:23.743Z,99375.58
2022-07-25T22:40:27.053Z,99365.02
2022-07-25T22:45:30.818Z,99358.36
2022-07-25T22:50:34.498Z,99353.42
2022-07-25T22:55:38.525Z,99346.18
2022-07-25T23:00:41.935Z,99333.27
2022-07-25T23:05:45.246Z,99333.06
2022-07-25T23:10:48.666Z,99326.27
2022-07-25T23:15:51.970Z,99321.27
2022-07-25T23:20:55.383Z,99316.58
2022-07-25T23:25:58.698Z,99316.84
2022-07-25T23:31:02.107Z,99313.09
2022-07-25T23:36:06.347Z,99303.85
2022-07-25T23:41:09.753Z,99294.92
2022-07-25T23:46:13.255Z,99279.67
2022-07-25T23:51:16.842Z,99277.90
2022-07-25T23:56:21.176Z,99267.92
